Time;durP1;ratioP1;P1;durP2;ratioP2;P2;SDS_P1;SDS_P2;PMS_P1;PMS_P2;Temp;Humidity;BMP_temperature;BMP_pressure;BME280_temperature;BME280_humidity;BME280_pressure;Samples;Min_cycle;Max_cycle;Signal;HPM_P1;HPM_P2
2021/12/23 00:01:30;;;;;;;47.13;23.58;;;;;;;;;;6215499;28;20061;-66
2021/12/23 00:04:32;;;;;;;50.60;24.98;;;;;;;;;;6231799;28;20046;-66
2021/12/23 00:07:33;;;;;;;44.78;23.40;;;;;;;;;;6222155;28;20056;-65
2021/12/23 00:10:35;;;;;;;45.63;23.73;;;;;;;;;;6221836;28;20901;-65
2021/12/23 00:13:37;;;;;;;44.90;23.45;;;;;;;;;;6230567;28;20486;-66
2021/12/23 00:16:44;;;;;;;43.55;22.17;;;;;;;;;;6213874;28;20147;-65
2021/12/23 00:19:58;;;;;;;39.70;22.65;;;;;;;;;;6229577;28;20125;-66
2021/12/23 00:26:19;;;;;;;39.15;20.55;;;;;;;;;;6226317;28;20490;-66
2021/12/23 00:29:21;;;;;;;44.15;22.70;;;;;;;;;;6226203;28;20103;-66
2021/12/23 00:32:23;;;;;;;40.03;22.13;;;;;;;;;;6204820;28;20084;-66
2021/12/23 00:35:25;;;;;;;40.38;21.73;;;;;;;;;;6216080;28;20068;-65
2021/12/23 00:38:30;;;;;;;39.97;22.40;;;;;;;;;;6228378;28;20073;-66
2021/12/23 00:41:31;;;;;;;39.35;22.05;;;;;;;;;;6215854;28;20065;-66
2021/12/23 00:44:34;;;;;;;46.20;24.40;;;;;;;;;;6239222;28;20052;-66
2021/12/23 00:47:37;;;;;;;43.33;23.58;;;;;;;;;;6204119;28;20045;-66
2021/12/23 00:50:39;;;;;;;41.38;22.50;;;;;;;;;;6215959;28;20087;-65
2021/12/23 00:53:41;;;;;;;43.75;22.20;;;;;;;;;;6231452;28;20046;-65
2021/12/23 00:56:48;;;;;;;41.35;23.02;;;;;;;;;;6216209;28;20057;-65
2021/12/23 00:59:49;;;;;;;46.08;23.27;;;;;;;;;;6236865;28;20085;-65
2021/12/23 01:02:53;;;;;;;44.17;21.13;;;;;;;;;;6198842;28;20044;-65
2021/12/23 01:05:54;;;;;;;50.92;24.00;;;;;;;;;;6207432;28;20088;-65
2021/12/23 01:08:56;;;;;;;45.45;23.80;;;;;;;;;;6219104;28;20050;-65
2021/12/23 01:11:58;;;;;;;47.28;23.83;;;;;;;;;;6214886;28;20231;-65
2021/12/23 01:15:12;;;;;;;47.60;23.52;;;;;;;;;;6219847;28;20458;-65
2021/12/23 01:18:19;;;;;;;47.05;23.42;;;;;;;;;;6211980;28;20084;-66
2021/12/23 01:21:22;;;;;;;44.13;22.48;;;;;;;;;;6212285;28;20662;-66
2021/12/23 01:24:28;;;;;;;48.20;23.20;;;;;;;;;;6223348;28;20061;-65
2021/12/23 01:27:30;;;;;;;48.33;22.83;;;;;;;;;;6218246;28;20050;-66
2021/12/23 01:30:31;;;;;;;43.67;21.02;;;;;;;;;;6213559;28;20115;-65
2021/12/23 01:33:34;;;;;;;49.00;23.83;;;;;;;;;;6221266;28;20091;-66
2021/12/23 01:36:36;;;;;;;45.47;21.73;;;;;;;;;;6216966;28;20103;-65
2021/12/23 01:39:37;;;;;;;54.22;24.45;;;;;;;;;;6224563;28;21637;-66
2021/12/23 01:42:39;;;;;;;58.15;27.75;;;;;;;;;;6213511;28;20053;-66
2021/12/23 01:45:45;;;;;;;97.80;42.30;;;;;;;;;;6214621;28;20041;-66
2021/12/23 01:48:48;;;;;;;112.88;49.28;;;;;;;;;;6220750;28;20048;-66
2021/12/23 01:51:49;;;;;;;63.67;28.17;;;;;;;;;;6218192;28;20049;-67
2021/12/23 01:54:51;;;;;;;51.60;25.60;;;;;;;;;;6229613;28;20049;-65
2021/12/23 01:57:53;;;;;;;50.05;23.77;;;;;;;;;;6213532;28;20041;-66
2021/12/23 02:00:56;;;;;;;47.08;22.55;;;;;;;;;;6210660;28;20042;-66
2021/12/23 02:03:59;;;;;;;57.15;24.15;;;;;;;;;;6218131;28;20163;-66
2021/12/23 02:07:00;;;;;;;49.10;23.35;;;;;;;;;;6207129;28;20099;-65
2021/12/23 02:10:02;;;;;;;51.85;22.52;;;;;;;;;;6220154;28;20494;-65
2021/12/23 02:13:04;;;;;;;44.30;22.88;;;;;;;;;;6223845;28;20373;-66
2021/12/23 02:16:06;;;;;;;47.05;22.60;;;;;;;;;;6214705;28;20525;-66
2021/12/23 02:19:17;;;;;;;47.47;22.50;;;;;;;;;;6221859;28;20521;-65
2021/12/23 02:22:19;;;;;;;47.63;21.92;;;;;;;;;;6218714;28;20042;-66
2021/12/23 02:25:21;;;;;;;48.42;21.65;;;;;;;;;;6216617;28;20037;-66
2021/12/23 02:28:23;;;;;;;41.95;20.05;;;;;;;;;;6224972;28;20172;-66
2021/12/23 02:31:25;;;;;;;42.58;21.80;;;;;;;;;;6208716;28;20050;-66
2021/12/23 02:34:26;;;;;;;40.25;19.88;;;;;;;;;;6226053;28;20045;-66
2021/12/23 02:37:29;;;;;;;42.75;20.73;;;;;;;;;;6216474;28;20074;-66
2021/12/23 02:40:33;;;;;;;39.30;20.10;;;;;;;;;;6218880;28;20048;-66
2021/12/23 02:43:36;;;;;;;38.08;20.00;;;;;;;;;;6231268;28;20141;-66
2021/12/23 02:46:38;;;;;;;39.90;19.97;;;;;;;;;;6228960;28;20227;-65
2021/12/23 02:49:39;;;;;;;39.70;20.17;;;;;;;;;;6238417;28;20898;-66
2021/12/23 02:52:42;;;;;;;37.72;19.30;;;;;;;;;;6219208;28;20258;-66
2021/12/23 02:55:44;;;;;;;40.75;19.67;;;;;;;;;;6225150;28;20675;-66
2021/12/23 02:58:46;;;;;;;43.15;22.13;;;;;;;;;;6231972;28;20046;-65
2021/12/23 03:01:47;;;;;;;41.15;19.77;;;;;;;;;;6211758;28;20476;-66
2021/12/23 03:04:49;;;;;;;40.08;20.13;;;;;;;;;;6230460;28;20102;-66
2021/12/23 03:07:52;;;;;;;40.60;20.20;;;;;;;;;;6215740;28;20038;-66
2021/12/23 03:10:54;;;;;;;39.83;20.63;;;;;;;;;;6219047;28;20044;-65
2021/12/23 03:13:56;;;;;;;38.55;20.15;;;;;;;;;;6228400;28;20056;-66
2021/12/23 03:16:57;;;;;;;41.05;21.02;;;;;;;;;;6217869;28;20401;-65
2021/12/23 03:19:59;;;;;;;43.67;21.65;;;;;;;;;;6227860;28;21087;-66
2021/12/23 03:23:02;;;;;;;40.10;19.70;;;;;;;;;;6218361;28;20054;-65
2021/12/23 03:26:04;;;;;;;41.47;20.90;;;;;;;;;;6218526;28;20052;-65
2021/12/23 03:29:07;;;;;;;40.60;20.45;;;;;;;;;;6229587;28;20049;-66
2021/12/23 03:32:09;;;;;;;41.45;21.67;;;;;;;;;;6210439;28;20049;-66
2021/12/23 03:35:11;;;;;;;37.97;19.58;;;;;;;;;;6228621;28;20470;-65
2021/12/23 03:38:14;;;;;;;40.45;20.20;;;;;;;;;;6236528;28;20102;-66
2021/12/23 03:41:16;;;;;;;34.72;19.45;;;;;;;;;;6235457;28;20041;-65
2021/12/23 03:44:17;;;;;;;39.88;20.13;;;;;;;;;;6232410;28;20116;-66
2021/12/23 03:47:19;;;;;;;41.40;19.60;;;;;;;;;;6217198;28;20050;-66
2021/12/23 03:50:23;;;;;;;39.70;19.88;;;;;;;;;;6216766;28;20095;-66
2021/12/23 03:53:26;;;;;;;39.42;19.05;;;;;;;;;;6223785;28;20053;-66
2021/12/23 03:56:28;;;;;;;37.20;19.25;;;;;;;;;;6230586;28;20134;-66
2021/12/23 03:59:30;;;;;;;41.08;19.80;;;;;;;;;;6227606;28;20112;-66
2021/12/23 04:02:31;;;;;;;42.63;19.98;;;;;;;;;;6211496;28;20038;-65
2021/12/23 04:05:33;;;;;;;37.05;18.65;;;;;;;;;;6210578;28;20510;-65
2021/12/23 04:08:36;;;;;;;43.20;20.42;;;;;;;;;;6229288;28;20050;-66
2021/12/23 04:11:38;;;;;;;40.33;18.67;;;;;;;;;;6218401;28;20054;-66
2021/12/23 04:14:39;;;;;;;42.08;20.10;;;;;;;;;;6228288;28;20064;-66
2021/12/23 04:17:41;;;;;;;38.42;18.95;;;;;;;;;;6208882;28;20568;-66
2021/12/23 04:20:53;;;;;;;41.08;19.85;;;;;;;;;;6216016;28;20079;-65
2021/12/23 04:23:56;;;;;;;35.88;18.98;;;;;;;;;;6230570;28;20057;-66
2021/12/23 04:26:57;;;;;;;39.60;19.42;;;;;;;;;;6218844;28;20054;-65
2021/12/23 04:29:59;;;;;;;35.80;17.77;;;;;;;;;;6256000;28;20053;-66
2021/12/23 04:33:00;;;;;;;39.38;18.65;;;;;;;;;;6216162;28;20045;-66
2021/12/23 04:36:02;;;;;;;38.03;20.08;;;;;;;;;;6212324;28;20041;-66
2021/12/23 04:39:06;;;;;;;39.20;18.38;;;;;;;;;;6229282;28;20075;-65
2021/12/23 04:42:08;;;;;;;42.05;19.42;;;;;;;;;;6220366;28;20190;-66
2021/12/23 04:45:10;;;;;;;39.85;18.85;;;;;;;;;;6235497;28;20075;-65
2021/12/23 04:48:11;;;;;;;39.80;18.80;;;;;;;;;;6222155;28;20045;-66
2021/12/23 04:51:14;;;;;;;37.33;18.42;;;;;;;;;;6219447;28;20053;-65
2021/12/23 04:54:17;;;;;;;37.60;17.75;;;;;;;;;;6223623;28;20535;-65
2021/12/23 04:57:18;;;;;;;33.00;16.45;;;;;;;;;;6221677;28;20068;-66
2021/12/23 05:00:21;;;;;;;38.10;18.83;;;;;;;;;;6221495;28;20044;-65
2021/12/23 05:03:24;;;;;;;34.15;16.70;;;;;;;;;;6216142;28;20068;-66
2021/12/23 05:06:26;;;;;;;40.83;17.52;;;;;;;;;;6218839;28;20134;-66
2021/12/23 05:09:29;;;;;;;40.30;19.08;;;;;;;;;;6235906;28;20477;-66
2021/12/23 05:12:30;;;;;;;34.47;17.08;;;;;;;;;;6221619;28;20038;-66
2021/12/23 05:15:32;;;;;;;37.25;17.58;;;;;;;;;;6214396;28;20034;-66
2021/12/23 05:18:34;;;;;;;35.85;17.17;;;;;;;;;;6223964;28;20037;-66
2021/12/23 05:21:35;;;;;;;31.08;15.45;;;;;;;;;;6226992;28;20075;-66
2021/12/23 05:24:38;;;;;;;34.65;17.60;;;;;;;;;;6229697;28;20049;-66
2021/12/23 05:27:40;;;;;;;36.10;16.13;;;;;;;;;;6222184;28;20049;-66
2021/12/23 05:30:41;;;;;;;35.00;17.05;;;;;;;;;;6222136;28;20048;-66
2021/12/23 05:33:43;;;;;;;36.85;16.90;;;;;;;;;;6221717;28;20051;-65
2021/12/23 05:36:45;;;;;;;35.83;17.10;;;;;;;;;;6220771;28;20045;-66
2021/12/23 05:39:47;;;;;;;35.50;16.85;;;;;;;;;;6225295;28;20049;-66
2021/12/23 05:42:50;;;;;;;35.20;16.73;;;;;;;;;;6226660;28;20049;-66
2021/12/23 05:45:51;;;;;;;35.53;16.40;;;;;;;;;;6222988;28;20701;-66
2021/12/23 05:48:53;;;;;;;34.38;17.58;;;;;;;;;;6230222;28;20056;-66
2021/12/23 05:51:55;;;;;;;38.05;17.85;;;;;;;;;;6219677;28;20186;-66
2021/12/23 05:54:58;;;;;;;36.65;16.80;;;;;;;;;;6231691;28;20054;-66
2021/12/23 05:57:59;;;;;;;35.85;16.70;;;;;;;;;;6219093;28;20144;-65
2021/12/23 06:01:01;;;;;;;36.22;18.13;;;;;;;;;;6223005;28;20100;-65
2021/12/23 06:04:03;;;;;;;35.97;18.63;;;;;;;;;;6232250;28;20049;-66
2021/12/23 06:07:05;;;;;;;39.00;19.15;;;;;;;;;;6223944;28;20136;-65
2021/12/23 06:10:09;;;;;;;34.75;18.20;;;;;;;;;;6227182;28;20064;-65
2021/12/23 06:13:11;;;;;;;34.90;16.70;;;;;;;;;;6223394;28;20042;-66
2021/12/23 06:16:12;;;;;;;33.67;16.50;;;;;;;;;;6210462;28;20045;-65
2021/12/23 06:19:15;;;;;;;36.22;17.50;;;;;;;;;;6234550;28;20046;-65
2021/12/23 06:22:18;;;;;;;33.45;15.88;;;;;;;;;;6228032;28;20047;-66
2021/12/23 06:25:21;;;;;;;35.42;16.35;;;;;;;;;;6228930;28;20049;-66
2021/12/23 06:28:22;;;;;;;33.00;15.80;;;;;;;;;;6237969;28;20404;-66
2021/12/23 06:31:24;;;;;;;30.65;15.68;;;;;;;;;;6217425;28;20045;-66
2021/12/23 06:34:26;;;;;;;34.20;16.23;;;;;;;;;;6236788;28;20047;-67
2021/12/23 06:37:27;;;;;;;30.88;15.52;;;;;;;;;;6217751;28;20045;-66
2021/12/23 06:40:30;;;;;;;30.85;15.38;;;;;;;;;;6227861;28;20795;-66
2021/12/23 06:43:32;;;;;;;25.67;13.55;;;;;;;;;;6233800;28;20128;-66
2021/12/23 06:46:34;;;;;;;30.30;15.65;;;;;;;;;;6215813;28;20495;-65
2021/12/23 06:49:35;;;;;;;30.38;15.00;;;;;;;;;;6231384;28;20133;-66
2021/12/23 06:52:37;;;;;;;30.02;14.23;;;;;;;;;;6222203;28;20056;-66
2021/12/23 06:55:40;;;;;;;29.33;15.60;;;;;;;;;;6225659;28;20126;-66
2021/12/23 06:58:42;;;;;;;25.98;15.23;;;;;;;;;;6240412;28;20049;-66
2021/12/23 07:01:47;;;;;;;26.90;14.30;;;;;;;;;;6217028;28;20124;-66
2021/12/23 07:04:48;;;;;;;28.98;15.73;;;;;;;;;;6219240;28;20068;-66
2021/12/23 07:07:57;;;;;;;30.75;15.60;;;;;;;;;;6214625;28;20092;-65
2021/12/23 07:11:00;;;;;;;29.40;15.68;;;;;;;;;;6214740;28;20054;-66
2021/12/23 07:14:01;;;;;;;27.42;14.90;;;;;;;;;;6224857;28;20394;-66
2021/12/23 07:17:04;;;;;;;26.42;14.57;;;;;;;;;;6208578;28;20137;-66
2021/12/23 07:20:06;;;;;;;26.83;15.57;;;;;;;;;;6225700;28;20053;-66
2021/12/23 07:23:08;;;;;;;33.38;16.98;;;;;;;;;;6221840;28;20049;-66
2021/12/23 07:26:10;;;;;;;28.30;15.68;;;;;;;;;;6220069;28;20095;-66
2021/12/23 07:29:12;;;;;;;28.77;15.98;;;;;;;;;;6233103;28;20056;-65
2021/12/23 07:32:14;;;;;;;32.92;16.48;;;;;;;;;;6214034;28;20141;-66
2021/12/23 07:35:16;;;;;;;31.13;15.50;;;;;;;;;;6219405;28;20088;-66
2021/12/23 07:38:18;;;;;;;27.67;15.77;;;;;;;;;;6221485;28;20139;-65
2021/12/23 07:41:21;;;;;;;28.88;15.60;;;;;;;;;;6216636;28;20140;-67
2021/12/23 07:44:23;;;;;;;28.67;15.60;;;;;;;;;;6229341;28;20136;-66
2021/12/23 07:47:24;;;;;;;33.13;15.60;;;;;;;;;;6219979;28;20132;-66
2021/12/23 07:50:26;;;;;;;28.88;16.13;;;;;;;;;;6222288;28;20285;-66
2021/12/23 07:53:28;;;;;;;36.15;16.70;;;;;;;;;;6227238;28;20409;-66
2021/12/23 07:56:31;;;;;;;34.10;17.63;;;;;;;;;;6219226;28;20087;-65
2021/12/23 07:59:33;;;;;;;33.58;17.38;;;;;;;;;;6226742;28;20042;-65
2021/12/23 08:02:34;;;;;;;31.85;17.13;;;;;;;;;;6219471;28;20133;-65
2021/12/23 08:05:36;;;;;;;33.30;17.45;;;;;;;;;;6216450;28;20140;-66
2021/12/23 08:08:38;;;;;;;29.05;17.25;;;;;;;;;;6226089;28;20041;-65
2021/12/23 08:11:40;;;;;;;31.20;17.08;;;;;;;;;;6214809;28;20073;-66
2021/12/23 08:14:42;;;;;;;38.63;18.80;;;;;;;;;;6228945;28;20200;-65
2021/12/23 08:17:44;;;;;;;37.40;17.70;;;;;;;;;;6226061;28;20496;-65
2021/12/23 08:20:45;;;;;;;32.63;17.38;;;;;;;;;;6218986;28;20176;-65
2021/12/23 08:23:47;;;;;;;37.65;18.27;;;;;;;;;;6229700;28;20108;-66
2021/12/23 08:26:53;;;;;;;32.80;18.15;;;;;;;;;;6214263;28;20129;-65
2021/12/23 08:29:54;;;;;;;31.75;17.67;;;;;;;;;;6228291;28;20049;-65
2021/12/23 08:32:56;;;;;;;31.52;17.38;;;;;;;;;;6210961;28;20045;-65
2021/12/23 08:35:58;;;;;;;32.83;18.33;;;;;;;;;;6213011;28;20077;-65
2021/12/23 08:38:59;;;;;;;33.50;17.40;;;;;;;;;;6229421;28;20061;-65
2021/12/23 08:42:02;;;;;;;35.58;18.35;;;;;;;;;;6214896;28;20501;-66
2021/12/23 08:45:07;;;;;;;30.25;17.67;;;;;;;;;;6227744;28;20518;-66
2021/12/23 08:48:08;;;;;;;28.08;16.75;;;;;;;;;;6214907;28;20084;-66
2021/12/23 08:51:10;;;;;;;31.58;17.67;;;;;;;;;;6212616;28;20087;-65
2021/12/23 08:54:12;;;;;;;35.17;19.45;;;;;;;;;;6226897;28;20115;-65
2021/12/23 08:57:15;;;;;;;31.25;18.23;;;;;;;;;;6218706;28;20060;-65
2021/12/23 09:00:19;;;;;;;30.80;18.33;;;;;;;;;;6219457;28;20045;-65
2021/12/23 09:03:20;;;;;;;31.10;18.23;;;;;;;;;;6218005;28;20532;-65
2021/12/23 09:06:22;;;;;;;34.80;19.48;;;;;;;;;;6216398;28;20702;-65
2021/12/23 09:09:24;;;;;;;36.05;18.63;;;;;;;;;;6239284;28;20556;-66
2021/12/23 09:12:27;;;;;;;30.35;17.88;;;;;;;;;;6218294;28;20469;-65
2021/12/23 09:15:29;;;;;;;30.10;17.63;;;;;;;;;;6210962;28;20474;-65
2021/12/23 09:18:31;;;;;;;31.63;18.65;;;;;;;;;;6216612;28;20187;-65
2021/12/23 09:21:33;;;;;;;33.67;17.65;;;;;;;;;;6214455;28;20133;-65
2021/12/23 09:24:35;;;;;;;33.03;17.55;;;;;;;;;;6219722;28;20049;-65
2021/12/23 09:27:44;;;;;;;31.15;18.58;;;;;;;;;;6216057;28;20052;-65
2021/12/23 09:34:05;;;;;;;31.27;17.45;;;;;;;;;;6225842;28;20049;-66
2021/12/23 09:37:07;;;;;;;30.38;18.02;;;;;;;;;;6219005;28;20049;-64
2021/12/23 09:40:09;;;;;;;31.63;18.35;;;;;;;;;;6220371;28;20629;-64
2021/12/23 09:43:13;;;;;;;31.45;18.27;;;;;;;;;;6218755;28;20965;-65
2021/12/23 09:46:17;;;;;;;32.92;18.88;;;;;;;;;;6213990;28;20136;-65
2021/12/23 09:49:18;;;;;;;30.10;18.60;;;;;;;;;;6223546;28;20543;-65
2021/12/23 09:52:20;;;;;;;34.58;19.60;;;;;;;;;;6221338;28;20370;-65
2021/12/23 09:55:25;;;;;;;31.00;19.83;;;;;;;;;;6221971;28;20041;-65
2021/12/23 09:58:28;;;;;;;36.00;19.90;;;;;;;;;;6223720;28;20126;-65
2021/12/23 10:01:32;;;;;;;32.50;19.07;;;;;;;;;;6213315;28;20564;-65
2021/12/23 10:04:34;;;;;;;33.93;20.33;;;;;;;;;;6223738;28;20045;-65
2021/12/23 10:07:35;;;;;;;37.95;20.40;;;;;;;;;;6214086;28;20045;-65
2021/12/23 10:10:42;;;;;;;32.95;19.73;;;;;;;;;;6225120;28;20128;-65
2021/12/23 10:30:54;;;;;;;35.08;20.00;;;;;;;;;;6214551;28;20052;-65
2021/12/23 10:37:26;;;;;;;35.20;20.92;;;;;;;;;;6221346;28;20160;-65
2021/12/23 10:40:29;;;;;;;31.23;19.75;;;;;;;;;;6222271;28;20076;-65
2021/12/23 10:43:33;;;;;;;34.03;20.35;;;;;;;;;;6221837;28;20417;-65
2021/12/23 10:46:38;;;;;;;32.78;21.67;;;;;;;;;;6210299;28;20132;-65
2021/12/23 10:49:43;;;;;;;37.85;21.55;;;;;;;;;;6218484;28;20128;-65
2021/12/23 10:52:52;;;;;;;38.92;21.67;;;;;;;;;;6218249;28;20132;-65
2021/12/23 10:59:30;;;;;;;33.55;21.15;;;;;;;;;;6238209;28;20057;-65
2021/12/23 11:02:36;;;;;;;40.08;22.45;;;;;;;;;;6219827;28;21015;-65
2021/12/23 11:05:44;;;;;;;36.13;21.90;;;;;;;;;;6219482;28;20090;-65
2021/12/23 11:08:54;;;;;;;34.55;21.88;;;;;;;;;;6229084;28;20524;-65
2021/12/23 11:30:19;;;;;;;40.00;24.27;;;;;;;;;;6236749;28;20136;-65
2021/12/23 11:36:32;;;;;;;38.40;23.73;;;;;;;;;;6223937;28;20049;-65
2021/12/23 11:39:47;;;;;;;40.13;24.38;;;;;;;;;;6232155;28;20056;-65
2021/12/23 11:43:13;;;;;;;41.53;25.00;;;;;;;;;;6229492;28;20053;-64
2021/12/23 11:46:15;;;;;;;42.33;24.00;;;;;;;;;;6222497;28;20102;-64
2021/12/23 11:49:18;;;;;;;36.72;22.60;;;;;;;;;;6231739;28;20125;-65
2021/12/23 11:52:21;;;;;;;41.63;24.00;;;;;;;;;;6226431;28;20766;-64
2021/12/23 11:55:22;;;;;;;40.03;24.00;;;;;;;;;;6215363;28;20056;-65
2021/12/23 11:58:25;;;;;;;39.15;22.15;;;;;;;;;;6231222;28;20087;-64
2021/12/23 12:01:30;;;;;;;41.03;23.58;;;;;;;;;;6218451;28;20045;-64
2021/12/23 12:04:35;;;;;;;37.05;22.85;;;;;;;;;;6228094;28;20046;-64
2021/12/23 12:07:40;;;;;;;39.65;22.33;;;;;;;;;;6219917;28;20038;-64
2021/12/23 12:10:44;;;;;;;40.55;22.75;;;;;;;;;;6219320;28;20438;-65
2021/12/23 12:13:46;;;;;;;41.43;21.30;;;;;;;;;;6232430;28;20056;-65
2021/12/23 12:16:47;;;;;;;42.08;22.60;;;;;;;;;;6214992;28;20446;-65
2021/12/23 12:19:53;;;;;;;39.08;21.88;;;;;;;;;;6225341;28;20123;-65
2021/12/23 12:23:00;;;;;;;39.85;22.25;;;;;;;;;;6211461;28;20121;-65
2021/12/23 12:26:05;;;;;;;34.65;21.70;;;;;;;;;;6220258;28;20045;-65
2021/12/23 12:29:07;;;;;;;38.25;22.33;;;;;;;;;;6230788;28;20148;-65
2021/12/23 12:32:35;;;;;;;38.72;23.08;;;;;;;;;;6215593;28;20504;-65
2021/12/23 12:35:37;;;;;;;36.47;20.85;;;;;;;;;;6214509;28;20216;-65
2021/12/23 12:38:43;;;;;;;37.63;21.27;;;;;;;;;;6230765;28;20119;-65
2021/12/23 12:41:46;;;;;;;36.47;22.17;;;;;;;;;;6216395;28;20050;-65
2021/12/23 12:44:53;;;;;;;36.58;22.73;;;;;;;;;;6231307;28;20689;-65
2021/12/23 12:48:00;;;;;;;36.35;21.42;;;;;;;;;;6214952;28;20050;-65
2021/12/23 12:51:02;;;;;;;33.63;20.52;;;;;;;;;;6219735;28;20046;-65
2021/12/23 12:54:07;;;;;;;36.45;21.48;;;;;;;;;;6233881;28;20134;-65
2021/12/23 12:57:10;;;;;;;35.97;21.50;;;;;;;;;;6222172;28;20049;-65
2021/12/23 13:00:24;;;;;;;36.90;22.23;;;;;;;;;;6222156;28;20129;-66
2021/12/23 13:03:25;;;;;;;39.25;21.48;;;;;;;;;;6226012;28;20044;-66
2021/12/23 13:06:29;;;;;;;35.85;22.13;;;;;;;;;;6219180;28;20049;-65
2021/12/23 13:09:37;;;;;;;40.50;22.02;;;;;;;;;;6228638;28;20054;-65
2021/12/23 13:12:46;;;;;;;39.22;22.35;;;;;;;;;;6217672;28;20152;-66
2021/12/23 13:15:51;;;;;;;36.92;22.45;;;;;;;;;;6215629;28;20050;-65
2021/12/23 13:19:11;;;;;;;41.70;22.95;;;;;;;;;;6225630;28;20052;-65
2021/12/23 13:22:17;;;;;;;37.05;21.05;;;;;;;;;;6219085;28;20135;-65
2021/12/23 13:25:20;;;;;;;40.13;22.52;;;;;;;;;;6221999;28;20060;-66
2021/12/23 13:28:28;;;;;;;43.95;23.05;;;;;;;;;;6223274;28;20176;-65
2021/12/23 13:31:32;;;;;;;44.35;23.92;;;;;;;;;;6214280;28;20056;-65
2021/12/23 13:34:34;;;;;;;37.72;22.95;;;;;;;;;;6229665;28;20126;-65
2021/12/23 13:37:35;;;;;;;40.53;22.88;;;;;;;;;;6218420;28;20064;-65
2021/12/23 13:40:39;;;;;;;41.60;22.92;;;;;;;;;;6220338;28;20137;-65
2021/12/23 13:43:40;;;;;;;43.85;22.85;;;;;;;;;;6227419;28;20543;-65
2021/12/23 13:46:43;;;;;;;46.45;24.88;;;;;;;;;;6214406;28;20191;-65
2021/12/23 13:49:47;;;;;;;51.28;26.73;;;;;;;;;;6227698;28;20128;-65
2021/12/23 13:52:50;;;;;;;54.40;28.00;;;;;;;;;;6211105;28;20041;-65
2021/12/23 13:55:53;;;;;;;51.20;28.30;;;;;;;;;;6210317;28;20178;-65
2021/12/23 13:59:05;;;;;;;59.22;28.85;;;;;;;;;;6223875;28;20135;-65
2021/12/23 14:02:09;;;;;;;52.17;28.80;;;;;;;;;;6206739;28;20132;-65
2021/12/23 14:05:12;;;;;;;52.63;29.80;;;;;;;;;;6214503;28;20169;-66
2021/12/23 14:08:15;;;;;;;57.30;28.45;;;;;;;;;;6219671;28;20053;-65
2021/12/23 14:11:18;;;;;;;49.38;27.38;;;;;;;;;;6216512;28;20046;-65
2021/12/23 14:14:20;;;;;;;49.45;28.38;;;;;;;;;;6223813;28;20515;-65
2021/12/23 14:17:32;;;;;;;52.65;29.48;;;;;;;;;;6207835;28;20095;-66
2021/12/23 14:23:54;;;;;;;58.28;28.70;;;;;;;;;;6220019;28;20057;-65
2021/12/23 14:26:57;;;;;;;52.00;29.00;;;;;;;;;;6223016;28;20411;-65
2021/12/23 14:30:05;;;;;;;49.50;27.30;;;;;;;;;;6223973;28;20418;-65
2021/12/23 14:33:09;;;;;;;56.20;27.42;;;;;;;;;;6201527;28;20049;-65
2021/12/23 14:36:12;;;;;;;51.27;28.23;;;;;;;;;;6211954;28;20416;-65
2021/12/23 14:39:15;;;;;;;53.70;28.70;;;;;;;;;;6223354;28;20050;-65
2021/12/23 14:42:20;;;;;;;53.55;28.27;;;;;;;;;;6213226;28;20119;-65
2021/12/23 14:45:22;;;;;;;46.70;26.02;;;;;;;;;;6210259;28;20878;-66
2021/12/23 14:48:25;;;;;;;54.75;28.08;;;;;;;;;;6221655;28;20132;-66
2021/12/23 14:51:26;;;;;;;52.42;27.15;;;;;;;;;;6217086;28;20053;-66
2021/12/23 14:54:28;;;;;;;49.05;27.70;;;;;;;;;;6234174;28;20048;-65
2021/12/23 14:57:35;;;;;;;51.20;27.85;;;;;;;;;;6228631;28;20072;-65
2021/12/23 15:00:39;;;;;;;48.03;26.00;;;;;;;;;;6216094;28;20053;-65
2021/12/23 15:03:40;;;;;;;48.85;26.42;;;;;;;;;;6216084;28;20168;-65
2021/12/23 15:07:06;;;;;;;45.28;24.80;;;;;;;;;;6217028;28;20116;-66
2021/12/23 15:10:08;;;;;;;46.47;25.20;;;;;;;;;;6207197;28;20110;-66
2021/12/23 15:13:20;;;;;;;48.30;26.90;;;;;;;;;;6216136;28;20770;-66
2021/12/23 15:16:24;;;;;;;45.63;26.02;;;;;;;;;;6201525;28;20049;-66
2021/12/23 15:19:36;;;;;;;46.60;24.83;;;;;;;;;;6216179;28;20554;-66
2021/12/23 15:22:44;;;;;;;50.40;26.15;;;;;;;;;;6215940;28;20064;-65
2021/12/23 15:25:46;;;;;;;41.78;24.52;;;;;;;;;;6209286;28;20641;-65
2021/12/23 15:32:48;;;;;;;41.13;24.45;;;;;;;;;;6253441;27;21329;-66
2021/12/23 15:35:49;;;;;;;34.70;19.20;;;;;;;;;;6234724;28;20838;-66
2021/12/23 15:38:51;;;;;;;40.33;23.88;;;;;;;;;;6240545;28;20103;-66
2021/12/23 15:41:54;;;;;;;37.22;22.00;;;;;;;;;;6232931;28;20050;-65
2021/12/23 15:44:55;;;;;;;45.17;24.35;;;;;;;;;;6241807;28;20100;-65
2021/12/23 15:47:58;;;;;;;38.95;23.73;;;;;;;;;;6218694;28;20203;-65
2021/12/23 15:51:01;;;;;;;42.05;23.65;;;;;;;;;;6222625;28;20088;-66
2021/12/23 15:54:03;;;;;;;42.95;24.02;;;;;;;;;;6242706;28;20045;-66
2021/12/23 15:57:05;;;;;;;41.40;22.45;;;;;;;;;;6234548;28;20143;-65
2021/12/23 16:00:08;;;;;;;38.20;22.92;;;;;;;;;;6237985;28;20560;-66
2021/12/23 16:03:11;;;;;;;40.75;22.67;;;;;;;;;;6217787;28;20191;-65
2021/12/23 16:09:32;;;;;;;42.30;22.50;;;;;;;;;;6237475;28;20049;-65
2021/12/23 16:12:35;;;;;;;36.13;21.80;;;;;;;;;;6231371;28;20061;-65
2021/12/23 16:15:36;;;;;;;38.90;22.52;;;;;;;;;;6223059;28;20124;-66
2021/12/23 16:18:39;;;;;;;38.58;21.98;;;;;;;;;;6232872;28;20094;-65
2021/12/23 16:21:41;;;;;;;38.47;21.73;;;;;;;;;;6223331;28;20897;-65
2021/12/23 16:24:45;;;;;;;38.42;21.27;;;;;;;;;;6242730;28;20053;-65
2021/12/23 16:27:47;;;;;;;39.08;20.88;;;;;;;;;;6233315;28;20478;-65
2021/12/23 16:30:48;;;;;;;39.17;20.35;;;;;;;;;;6216099;28;20655;-66
2021/12/23 16:33:52;;;;;;;36.90;21.13;;;;;;;;;;6237953;28;20069;-66
2021/12/23 16:36:53;;;;;;;39.60;21.30;;;;;;;;;;6224841;28;20271;-65
2021/12/23 16:39:55;;;;;;;40.28;21.85;;;;;;;;;;6241240;28;20069;-65
2021/12/23 16:42:57;;;;;;;39.22;21.00;;;;;;;;;;6208147;28;20096;-65
2021/12/23 16:45:59;;;;;;;37.67;21.42;;;;;;;;;;6206568;28;20046;-65
2021/12/23 16:49:02;;;;;;;39.42;20.90;;;;;;;;;;6195101;28;20133;-65
2021/12/23 16:52:04;;;;;;;40.95;20.67;;;;;;;;;;6188122;28;20387;-65
2021/12/23 16:55:12;;;;;;;42.42;22.42;;;;;;;;;;6190048;28;20140;-65
2021/12/23 16:58:17;;;;;;;44.47;21.40;;;;;;;;;;6194401;28;20045;-65
2021/12/23 17:01:19;;;;;;;42.67;22.95;;;;;;;;;;6201436;28;20066;-66
2021/12/23 17:04:22;;;;;;;40.53;21.35;;;;;;;;;;6225486;28;20466;-64
2021/12/23 17:07:24;;;;;;;39.45;21.40;;;;;;;;;;6209004;28;20842;-65
2021/12/23 17:10:27;;;;;;;41.42;21.13;;;;;;;;;;6214634;28;20186;-65
2021/12/23 17:13:29;;;;;;;42.80;22.00;;;;;;;;;;6198057;28;20046;-65
2021/12/23 17:16:36;;;;;;;37.45;21.30;;;;;;;;;;6171774;28;20050;-65
2021/12/23 17:19:46;;;;;;;43.25;22.58;;;;;;;;;;6192795;28;20076;-64
2021/12/23 17:22:48;;;;;;;39.80;22.17;;;;;;;;;;6178672;28;20062;-65
2021/12/23 17:25:51;;;;;;;41.50;22.67;;;;;;;;;;6182455;28;20057;-65
2021/12/23 17:28:53;;;;;;;42.10;21.23;;;;;;;;;;6192687;28;20141;-64
2021/12/23 17:31:55;;;;;;;43.38;22.02;;;;;;;;;;6164106;28;20124;-65
2021/12/23 17:34:58;;;;;;;45.75;22.85;;;;;;;;;;6181754;28;20439;-65
2021/12/23 17:38:04;;;;;;;42.22;21.90;;;;;;;;;;6180280;28;20113;-65
2021/12/23 17:41:06;;;;;;;40.85;21.80;;;;;;;;;;6180528;28;20054;-65
2021/12/23 17:44:08;;;;;;;42.75;21.40;;;;;;;;;;6199818;28;20524;-65
2021/12/23 17:47:09;;;;;;;44.13;22.08;;;;;;;;;;6185694;28;20049;-65
2021/12/23 17:50:13;;;;;;;39.90;21.23;;;;;;;;;;6194904;28;20070;-65
2021/12/23 17:53:16;;;;;;;44.77;22.57;;;;;;;;;;6190473;28;20049;-64
2021/12/23 17:56:17;;;;;;;39.67;21.23;;;;;;;;;;6198238;28;20100;-65
2021/12/23 17:59:21;;;;;;;40.83;22.20;;;;;;;;;;6199756;28;20153;-65
2021/12/23 18:02:23;;;;;;;42.78;22.42;;;;;;;;;;6179459;28;20042;-65
2021/12/23 18:05:26;;;;;;;43.65;22.30;;;;;;;;;;6197017;28;20506;-66
2021/12/23 18:08:28;;;;;;;41.13;23.48;;;;;;;;;;6225297;28;20058;-65
2021/12/23 18:11:30;;;;;;;42.67;22.42;;;;;;;;;;6225188;28;20103;-65
2021/12/23 18:14:33;;;;;;;45.22;24.00;;;;;;;;;;6227005;28;20474;-65
2021/12/23 18:17:35;;;;;;;44.35;24.63;;;;;;;;;;6204790;28;20037;-66
2021/12/23 18:20:38;;;;;;;43.53;23.33;;;;;;;;;;6196613;28;20092;-66
2021/12/23 18:23:39;;;;;;;44.90;23.05;;;;;;;;;;6196371;28;21591;-66
2021/12/23 18:26:41;;;;;;;40.90;23.33;;;;;;;;;;6182650;28;20505;-65
2021/12/23 18:29:43;;;;;;;44.83;24.05;;;;;;;;;;6191876;28;20120;-65
2021/12/23 18:32:46;;;;;;;42.47;23.88;;;;;;;;;;6199234;28;20057;-65
2021/12/23 18:35:50;;;;;;;41.30;23.23;;;;;;;;;;6187661;28;20046;-66
2021/12/23 18:38:54;;;;;;;46.63;21.88;;;;;;;;;;6201324;28;20046;-66
2021/12/23 18:42:00;;;;;;;44.63;24.17;;;;;;;;;;6194653;28;20136;-65
2021/12/23 18:45:02;;;;;;;46.22;23.67;;;;;;;;;;6201206;28;20457;-65
2021/12/23 18:48:04;;;;;;;46.28;24.42;;;;;;;;;;6178727;28;20131;-65